sensor_id;sensor_type;location;lat;lon;timestamp;temperature;humidity
22364;DHT22;11349;53.412;-1.328;2023-06-10T00:00:38;11.80;99.90
22364;DHT22;11349;53.412;-1.328;2023-06-10T00:03:06;11.80;99.90
22364;DHT22;11349;53.412;-1.328;2023-06-10T00:05:33;11.90;99.90
22364;DHT22;11349;53.412;-1.328;2023-06-10T00:08:00;11.80;99.90
22364;DHT22;11349;53.412;-1.328;2023-06-10T00:10:32;11.90;99.90
22364;DHT22;11349;53.412;-1.328;2023-06-10T00:12:58;11.80;99.90
22364;DHT22;11349;53.412;-1.328;2023-06-10T00:15:25;11.90;99.90
22364;DHT22;11349;53.412;-1.328;2023-06-10T00:17:50;11.90;99.90
22364;DHT22;11349;53.412;-1.328;2023-06-10T00:20:21;11.90;99.90
22364;DHT22;11349;53.412;-1.328;2023-06-10T00:22:49;11.90;99.90
22364;DHT22;11349;53.412;-1.328;2023-06-10T00:25:15;11.80;99.90
22364;DHT22;11349;53.412;-1.328;2023-06-10T00:27:41;11.80;99.90
22364;DHT22;11349;53.412;-1.328;2023-06-10T00:30:07;11.80;99.90
22364;DHT22;11349;53.412;-1.328;2023-06-10T00:32:34;11.70;99.90
22364;DHT22;11349;53.412;-1.328;2023-06-10T00:34:59;11.60;99.90
22364;DHT22;11349;53.412;-1.328;2023-06-10T00:37:25;11.70;99.90
22364;DHT22;11349;53.412;-1.328;2023-06-10T00:39:51;11.90;99.90
22364;DHT22;11349;53.412;-1.328;2023-06-10T00:42:17;11.80;99.90
22364;DHT22;11349;53.412;-1.328;2023-06-10T00:44:42;11.80;99.90
22364;DHT22;11349;53.412;-1.328;2023-06-10T00:47:08;11.70;99.90
22364;DHT22;11349;53.412;-1.328;2023-06-10T00:49:34;11.80;99.90
22364;DHT22;11349;53.412;-1.328;2023-06-10T00:52:01;11.80;99.90
22364;DHT22;11349;53.412;-1.328;2023-06-10T00:54:28;11.70;99.90
22364;DHT22;11349;53.412;-1.328;2023-06-10T00:56:55;11.70;99.90
22364;DHT22;11349;53.412;-1.328;2023-06-10T00:59:21;11.80;99.90
22364;DHT22;11349;53.412;-1.328;2023-06-10T01:01:46;11.80;99.90
22364;DHT22;11349;53.412;-1.328;2023-06-10T01:04:13;11.80;99.90
22364;DHT22;11349;53.412;-1.328;2023-06-10T01:09:25;11.70;99.90
22364;DHT22;11349;53.412;-1.328;2023-06-10T01:12:24;11.70;99.90
22364;DHT22;11349;53.412;-1.328;2023-06-10T01:14:52;11.70;99.90
22364;DHT22;11349;53.412;-1.328;2023-06-10T01:17:18;11.60;99.90
22364;DHT22;11349;53.412;-1.328;2023-06-10T01:19:52;11.60;99.90
22364;DHT22;11349;53.412;-1.328;2023-06-10T01:22:18;11.70;99.90
22364;DHT22;11349;53.412;-1.328;2023-06-10T01:24:44;11.70;99.90
22364;DHT22;11349;53.412;-1.328;2023-06-10T01:27:13;11.60;99.90
22364;DHT22;11349;53.412;-1.328;2023-06-10T01:29:46;11.50;99.90
22364;DHT22;11349;53.412;-1.328;2023-06-10T01:32:22;11.50;99.90
22364;DHT22;11349;53.412;-1.328;2023-06-10T01:34:50;11.50;99.90
22364;DHT22;11349;53.412;-1.328;2023-06-10T01:37:19;11.50;99.90
22364;DHT22;11349;53.412;-1.328;2023-06-10T01:39:49;11.60;99.90
22364;DHT22;11349;53.412;-1.328;2023-06-10T01:42:16;11.60;99.90
22364;DHT22;11349;53.412;-1.328;2023-06-10T01:44:42;11.50;99.90
22364;DHT22;11349;53.412;-1.328;2023-06-10T01:47:08;11.60;99.90
22364;DHT22;11349;53.412;-1.328;2023-06-10T01:49:34;11.50;99.90
22364;DHT22;11349;53.412;-1.328;2023-06-10T01:52:00;11.60;99.90
22364;DHT22;11349;53.412;-1.328;2023-06-10T01:54:26;11.60;99.90
22364;DHT22;11349;53.412;-1.328;2023-06-10T01:56:52;11.60;99.90
22364;DHT22;11349;53.412;-1.328;2023-06-10T01:59:17;11.60;99.90
22364;DHT22;11349;53.412;-1.328;2023-06-10T02:01:43;11.70;99.90
22364;DHT22;11349;53.412;-1.328;2023-06-10T02:04:09;11.60;99.90
22364;DHT22;11349;53.412;-1.328;2023-06-10T02:06:34;11.30;99.90
22364;DHT22;11349;53.412;-1.328;2023-06-10T02:09:01;11.40;99.90
22364;DHT22;11349;53.412;-1.328;2023-06-10T02:11:26;11.40;99.90
22364;DHT22;11349;53.412;-1.328;2023-06-10T02:13:52;11.50;99.90
22364;DHT22;11349;53.412;-1.328;2023-06-10T02:16:18;11.30;99.90
22364;DHT22;11349;53.412;-1.328;2023-06-10T02:18:44;11.40;99.90
22364;DHT22;11349;53.412;-1.328;2023-06-10T02:21:09;11.40;99.90
22364;DHT22;11349;53.412;-1.328;2023-06-10T02:23:36;11.30;99.90
22364;DHT22;11349;53.412;-1.328;2023-06-10T02:26:01;11.40;99.90
22364;DHT22;11349;53.412;-1.328;2023-06-10T02:28:27;11.40;99.90
22364;DHT22;11349;53.412;-1.328;2023-06-10T02:30:53;11.40;99.90
22364;DHT22;11349;53.412;-1.328;2023-06-10T02:33:19;11.40;99.90
22364;DHT22;11349;53.412;-1.328;2023-06-10T02:35:45;11.40;99.90
22364;DHT22;11349;53.412;-1.328;2023-06-10T02:38:11;11.40;99.90
22364;DHT22;11349;53.412;-1.328;2023-06-10T02:40:37;11.30;99.90
22364;DHT22;11349;53.412;-1.328;2023-06-10T02:43:02;11.40;99.90
22364;DHT22;11349;53.412;-1.328;2023-06-10T02:45:28;11.30;99.90
22364;DHT22;11349;53.412;-1.328;2023-06-10T02:47:54;11.30;99.90
22364;DHT22;11349;53.412;-1.328;2023-06-10T02:50:20;11.30;99.90
22364;DHT22;11349;53.412;-1.328;2023-06-10T02:52:46;11.40;99.90
22364;DHT22;11349;53.412;-1.328;2023-06-10T02:55:12;11.40;99.90
22364;DHT22;11349;53.412;-1.328;2023-06-10T02:57:37;11.30;99.90
22364;DHT22;11349;53.412;-1.328;2023-06-10T03:00:03;11.30;99.90
22364;DHT22;11349;53.412;-1.328;2023-06-10T03:02:35;11.30;99.90
22364;DHT22;11349;53.412;-1.328;2023-06-10T03:05:02;11.30;99.90
22364;DHT22;11349;53.412;-1.328;2023-06-10T03:07:28;11.20;99.90
22364;DHT22;11349;53.412;-1.328;2023-06-10T03:09:54;11.20;99.90
22364;DHT22;11349;53.412;-1.328;2023-06-10T03:12:20;11.10;99.90
22364;DHT22;11349;53.412;-1.328;2023-06-10T03:14:45;11.10;99.90
22364;DHT22;11349;53.412;-1.328;2023-06-10T03:17:11;11.10;99.90
22364;DHT22;11349;53.412;-1.328;2023-06-10T03:19:37;11.20;99.90
22364;DHT22;11349;53.412;-1.328;2023-06-10T03:22:13;11.20;99.90
22364;DHT22;11349;53.412;-1.328;2023-06-10T03:24:40;11.20;99.90
22364;DHT22;11349;53.412;-1.328;2023-06-10T03:27:09;11.20;99.90
22364;DHT22;11349;53.412;-1.328;2023-06-10T03:29:37;11.20;99.90
22364;DHT22;11349;53.412;-1.328;2023-06-10T03:32:03;11.20;99.90
22364;DHT22;11349;53.412;-1.328;2023-06-10T03:34:29;11.20;99.90
22364;DHT22;11349;53.412;-1.328;2023-06-10T03:36:56;11.10;99.90
22364;DHT22;11349;53.412;-1.328;2023-06-10T03:39:22;11.20;99.90
22364;DHT22;11349;53.412;-1.328;2023-06-10T03:41:49;11.20;99.90
22364;DHT22;11349;53.412;-1.328;2023-06-10T03:44:15;11.20;99.90
22364;DHT22;11349;53.412;-1.328;2023-06-10T03:46:41;11.20;99.90
22364;DHT22;11349;53.412;-1.328;2023-06-10T03:49:06;11.20;99.90
22364;DHT22;11349;53.412;-1.328;2023-06-10T03:51:32;11.10;99.90
22364;DHT22;11349;53.412;-1.328;2023-06-10T03:53:58;11.00;99.90
22364;DHT22;11349;53.412;-1.328;2023-06-10T03:56:24;11.10;99.90
22364;DHT22;11349;53.412;-1.328;2023-06-10T03:58:51;11.10;99.90
22364;DHT22;11349;53.412;-1.328;2023-06-10T04:01:17;11.10;99.90
22364;DHT22;11349;53.412;-1.328;2023-06-10T04:03:46;11.20;99.90
22364;DHT22;11349;53.412;-1.328;2023-06-10T04:06:14;11.30;99.90
22364;DHT22;11349;53.412;-1.328;2023-06-10T04:08:41;11.30;99.90
22364;DHT22;11349;53.412;-1.328;2023-06-10T04:11:07;11.20;99.90
22364;DHT22;11349;53.412;-1.328;2023-06-10T04:13:32;11.20;99.90
22364;DHT22;11349;53.412;-1.328;2023-06-10T04:15:58;11.20;99.90
22364;DHT22;11349;53.412;-1.328;2023-06-10T04:18:24;11.30;99.90
22364;DHT22;11349;53.412;-1.328;2023-06-10T04:20:50;11.20;99.90
22364;DHT22;11349;53.412;-1.328;2023-06-10T04:23:16;11.20;99.90
22364;DHT22;11349;53.412;-1.328;2023-06-10T04:25:42;11.20;99.90
22364;DHT22;11349;53.412;-1.328;2023-06-10T04:28:08;11.30;99.90
22364;DHT22;11349;53.412;-1.328;2023-06-10T04:30:34;11.30;99.90
22364;DHT22;11349;53.412;-1.328;2023-06-10T04:32:59;11.10;99.90
22364;DHT22;11349;53.412;-1.328;2023-06-10T04:35:25;11.20;99.90
22364;DHT22;11349;53.412;-1.328;2023-06-10T04:37:53;11.20;99.90
22364;DHT22;11349;53.412;-1.328;2023-06-10T04:40:19;11.10;99.90
22364;DHT22;11349;53.412;-1.328;2023-06-10T04:42:45;11.20;99.90
22364;DHT22;11349;53.412;-1.328;2023-06-10T04:45:11;11.30;99.90
22364;DHT22;11349;53.412;-1.328;2023-06-10T04:47:37;11.10;99.90
22364;DHT22;11349;53.412;-1.328;2023-06-10T04:50:03;11.10;99.90
22364;DHT22;11349;53.412;-1.328;2023-06-10T04:52:30;11.20;99.90
22364;DHT22;11349;53.412;-1.328;2023-06-10T04:54:57;11.20;99.90
22364;DHT22;11349;53.412;-1.328;2023-06-10T04:57:23;11.30;99.90
22364;DHT22;11349;53.412;-1.328;2023-06-10T04:59:49;11.20;99.90
22364;DHT22;11349;53.412;-1.328;2023-06-10T05:02:15;11.30;99.90
22364;DHT22;11349;53.412;-1.328;2023-06-10T05:04:41;11.30;99.90
22364;DHT22;11349;53.412;-1.328;2023-06-10T05:07:06;11.30;99.90
22364;DHT22;11349;53.412;-1.328;2023-06-10T05:09:32;11.30;99.90
22364;DHT22;11349;53.412;-1.328;2023-06-10T05:11:58;11.30;99.90
22364;DHT22;11349;53.412;-1.328;2023-06-10T05:14:24;11.40;99.90
22364;DHT22;11349;53.412;-1.328;2023-06-10T05:16:50;11.40;99.90
22364;DHT22;11349;53.412;-1.328;2023-06-10T05:19:16;11.30;99.90
22364;DHT22;11349;53.412;-1.328;2023-06-10T05:21:41;11.20;99.90
22364;DHT22;11349;53.412;-1.328;2023-06-10T05:24:07;11.20;99.90
22364;DHT22;11349;53.412;-1.328;2023-06-10T05:26:33;11.30;99.90
22364;DHT22;11349;53.412;-1.328;2023-06-10T05:29:03;11.20;99.90
22364;DHT22;11349;53.412;-1.328;2023-06-10T05:31:30;11.30;99.90
22364;DHT22;11349;53.412;-1.328;2023-06-10T05:33:55;11.30;99.90
22364;DHT22;11349;53.412;-1.328;2023-06-10T05:36:21;11.30;99.90
22364;DHT22;11349;53.412;-1.328;2023-06-10T05:38:47;11.20;99.90
22364;DHT22;11349;53.412;-1.328;2023-06-10T05:41:13;11.20;99.90
22364;DHT22;11349;53.412;-1.328;2023-06-10T05:43:38;11.40;99.90
22364;DHT22;11349;53.412;-1.328;2023-06-10T05:46:04;11.40;99.90
22364;DHT22;11349;53.412;-1.328;2023-06-10T05:48:30;11.50;99.90
22364;DHT22;11349;53.412;-1.328;2023-06-10T05:50:56;11.40;99.90
22364;DHT22;11349;53.412;-1.328;2023-06-10T05:53:21;11.50;99.90
22364;DHT22;11349;53.412;-1.328;2023-06-10T05:55:47;11.50;99.90
22364;DHT22;11349;53.412;-1.328;2023-06-10T05:58:14;11.50;99.90
22364;DHT22;11349;53.412;-1.328;2023-06-10T06:00:40;11.60;99.90
22364;DHT22;11349;53.412;-1.328;2023-06-10T06:03:07;11.70;99.90
22364;DHT22;11349;53.412;-1.328;2023-06-10T06:05:36;11.70;99.90
22364;DHT22;11349;53.412;-1.328;2023-06-10T06:08:04;11.70;99.90
22364;DHT22;11349;53.412;-1.328;2023-06-10T06:10:30;11.80;99.90
22364;DHT22;11349;53.412;-1.328;2023-06-10T06:12:56;11.70;99.90
22364;DHT22;11349;53.412;-1.328;2023-06-10T06:15:21;11.80;99.90
22364;DHT22;11349;53.412;-1.328;2023-06-10T06:17:47;11.90;99.90
22364;DHT22;11349;53.412;-1.328;2023-06-10T06:20:15;11.90;99.90
22364;DHT22;11349;53.412;-1.328;2023-06-10T06:22:40;12.10;99.90
22364;DHT22;11349;53.412;-1.328;2023-06-10T06:25:07;12.00;27.40
22364;DHT22;11349;53.412;-1.328;2023-06-10T06:27:33;12.20;35.00
22364;DHT22;11349;53.412;-1.328;2023-06-10T06:29:59;12.30;1.00
22364;DHT22;11349;53.412;-1.328;2023-06-10T06:32:25;12.30;16.30
22364;DHT22;11349;53.412;-1.328;2023-06-10T06:34:53;12.40;48.70
22364;DHT22;11349;53.412;-1.328;2023-06-10T06:37:23;12.40;1.00
22364;DHT22;11349;53.412;-1.328;2023-06-10T06:39:53;12.50;1.00
22364;DHT22;11349;53.412;-1.328;2023-06-10T06:42:20;12.70;1.00
22364;DHT22;11349;53.412;-1.328;2023-06-10T06:44:46;12.70;1.00
22364;DHT22;11349;53.412;-1.328;2023-06-10T06:47:13;12.90;1.00
22364;DHT22;11349;53.412;-1.328;2023-06-10T06:49:38;12.80;1.00
22364;DHT22;11349;53.412;-1.328;2023-06-10T06:52:05;12.90;1.00
22364;DHT22;11349;53.412;-1.328;2023-06-10T06:54:31;13.10;1.00
22364;DHT22;11349;53.412;-1.328;2023-06-10T06:56:57;13.40;1.00
22364;DHT22;11349;53.412;-1.328;2023-06-10T06:59:22;13.50;1.00
22364;DHT22;11349;53.412;-1.328;2023-06-10T07:01:49;13.60;1.00
22364;DHT22;11349;53.412;-1.328;2023-06-10T07:04:15;13.80;1.00
22364;DHT22;11349;53.412;-1.328;2023-06-10T07:06:41;14.00;1.00
22364;DHT22;11349;53.412;-1.328;2023-06-10T07:09:10;14.40;1.00
22364;DHT22;11349;53.412;-1.328;2023-06-10T07:11:36;14.80;1.00
22364;DHT22;11349;53.412;-1.328;2023-06-10T07:14:01;15.20;1.00
22364;DHT22;11349;53.412;-1.328;2023-06-10T07:16:27;15.60;1.00
22364;DHT22;11349;53.412;-1.328;2023-06-10T07:18:53;16.10;1.00
22364;DHT22;11349;53.412;-1.328;2023-06-10T07:21:19;16.40;1.00
22364;DHT22;11349;53.412;-1.328;2023-06-10T07:23:45;16.40;75.80
22364;DHT22;11349;53.412;-1.328;2023-06-10T07:26:11;16.80;1.00
22364;DHT22;11349;53.412;-1.328;2023-06-10T07:28:39;17.20;99.90
22364;DHT22;11349;53.412;-1.328;2023-06-10T07:31:05;17.20;1.00
22364;DHT22;11349;53.412;-1.328;2023-06-10T07:33:31;17.50;99.90
22364;DHT22;11349;53.412;-1.328;2023-06-10T07:35:57;17.50;1.00
22364;DHT22;11349;53.412;-1.328;2023-06-10T07:38:22;17.70;99.90
22364;DHT22;11349;53.412;-1.328;2023-06-10T07:40:48;18.10;19.00
22364;DHT22;11349;53.412;-1.328;2023-06-10T07:43:14;18.40;99.90
22364;DHT22;11349;53.412;-1.328;2023-06-10T07:45:40;18.80;99.90
22364;DHT22;11349;53.412;-1.328;2023-06-10T07:48:06;19.10;99.90
22364;DHT22;11349;53.412;-1.328;2023-06-10T07:50:33;19.10;99.90
22364;DHT22;11349;53.412;-1.328;2023-06-10T07:52:58;19.10;1.00
22364;DHT22;11349;53.412;-1.328;2023-06-10T07:55:24;19.60;99.90
22364;DHT22;11349;53.412;-1.328;2023-06-10T07:57:52;19.70;99.90
22364;DHT22;11349;53.412;-1.328;2023-06-10T08:00:18;19.70;99.90
22364;DHT22;11349;53.412;-1.328;2023-06-10T08:02:44;19.60;99.90
22364;DHT22;11349;53.412;-1.328;2023-06-10T08:05:10;20.10;1.00
22364;DHT22;11349;53.412;-1.328;2023-06-10T08:07:35;20.40;99.90
22364;DHT22;11349;53.412;-1.328;2023-06-10T08:10:02;20.80;99.90
22364;DHT22;11349;53.412;-1.328;2023-06-10T08:12:29;20.30;99.90
22364;DHT22;11349;53.412;-1.328;2023-06-10T08:14:55;20.30;1.00
22364;DHT22;11349;53.412;-1.328;2023-06-10T08:17:21;20.80;99.90
22364;DHT22;11349;53.412;-1.328;2023-06-10T08:19:47;20.70;1.00
22364;DHT22;11349;53.412;-1.328;2023-06-10T08:22:13;21.00;99.90
22364;DHT22;11349;53.412;-1.328;2023-06-10T08:24:38;21.40;25.60
22364;DHT22;11349;53.412;-1.328;2023-06-10T08:27:04;21.20;1.00
22364;DHT22;11349;53.412;-1.328;2023-06-10T08:29:31;21.70;99.90
22364;DHT22;11349;53.412;-1.328;2023-06-10T08:31:57;22.00;1.00
22364;DHT22;11349;53.412;-1.328;2023-06-10T08:34:23;22.00;1.00
22364;DHT22;11349;53.412;-1.328;2023-06-10T08:36:49;22.20;13.30
22364;DHT22;11349;53.412;-1.328;2023-06-10T08:39:20;22.10;99.90
22364;DHT22;11349;53.412;-1.328;2023-06-10T08:42:00;22.50;99.90
22364;DHT22;11349;53.412;-1.328;2023-06-10T08:44:30;22.30;99.90
22364;DHT22;11349;53.412;-1.328;2023-06-10T08:46:59;23.00;99.90
22364;DHT22;11349;53.412;-1.328;2023-06-10T08:49:27;23.30;99.90
22364;DHT22;11349;53.412;-1.328;2023-06-10T08:51:58;23.80;99.90
22364;DHT22;11349;53.412;-1.328;2023-06-10T08:54:28;23.40;99.90
22364;DHT22;11349;53.412;-1.328;2023-06-10T08:56:55;23.80;99.90
22364;DHT22;11349;53.412;-1.328;2023-06-10T08:59:21;23.90;1.00
22364;DHT22;11349;53.412;-1.328;2023-06-10T09:01:47;23.10;1.00
22364;DHT22;11349;53.412;-1.328;2023-06-10T09:04:13;23.60;1.00
22364;DHT22;11349;53.412;-1.328;2023-06-10T09:06:40;23.20;1.00
22364;DHT22;11349;53.412;-1.328;2023-06-10T09:09:06;24.10;99.90
22364;DHT22;11349;53.412;-1.328;2023-06-10T09:11:32;24.50;99.90
22364;DHT22;11349;53.412;-1.328;2023-06-10T09:13:58;24.50;1.00
22364;DHT22;11349;53.412;-1.328;2023-06-10T09:16:27;23.60;1.00
22364;DHT22;11349;53.412;-1.328;2023-06-10T09:18:53;24.00;1.00
22364;DHT22;11349;53.412;-1.328;2023-06-10T09:21:24;23.70;99.90
22364;DHT22;11349;53.412;-1.328;2023-06-10T09:23:50;23.40;82.10
22364;DHT22;11349;53.412;-1.328;2023-06-10T09:26:16;23.50;1.00
22364;DHT22;11349;53.412;-1.328;2023-06-10T09:28:49;23.50;99.90
22364;DHT22;11349;53.412;-1.328;2023-06-10T09:31:16;24.20;1.00
22364;DHT22;11349;53.412;-1.328;2023-06-10T09:33:44;24.20;1.00
22364;DHT22;11349;53.412;-1.328;2023-06-10T09:36:10;24.20;1.00
22364;DHT22;11349;53.412;-1.328;2023-06-10T09:38:36;24.30;1.00
22364;DHT22;11349;53.412;-1.328;2023-06-10T09:41:03;23.90;1.00
22364;DHT22;11349;53.412;-1.328;2023-06-10T09:43:45;24.50;99.90
22364;DHT22;11349;53.412;-1.328;2023-06-10T09:46:15;24.10;99.90
22364;DHT22;11349;53.412;-1.328;2023-06-10T09:48:43;24.00;34.30
22364;DHT22;11349;53.412;-1.328;2023-06-10T09:51:10;24.30;1.00
22364;DHT22;11349;53.412;-1.328;2023-06-10T09:53:36;24.10;99.90
22364;DHT22;11349;53.412;-1.328;2023-06-10T09:56:02;24.20;99.90
22364;DHT22;11349;53.412;-1.328;2023-06-10T09:58:38;24.00;99.90
22364;DHT22;11349;53.412;-1.328;2023-06-10T10:01:12;24.00;37.10
22364;DHT22;11349;53.412;-1.328;2023-06-10T10:03:48;22.60;64.50
22364;DHT22;11349;53.412;-1.328;2023-06-10T10:06:16;23.40;99.90
22364;DHT22;11349;53.412;-1.328;2023-06-10T10:08:43;22.70;45.10
22364;DHT22;11349;53.412;-1.328;2023-06-10T10:11:12;22.60;99.90
22364;DHT22;11349;53.412;-1.328;2023-06-10T10:13:38;22.50;99.90
22364;DHT22;11349;53.412;-1.328;2023-06-10T10:16:10;22.50;1.00
22364;DHT22;11349;53.412;-1.328;2023-06-10T10:18:43;22.70;1.00
22364;DHT22;11349;53.412;-1.328;2023-06-10T10:21:15;22.90;1.00
22364;DHT22;11349;53.412;-1.328;2023-06-10T10:24:18;22.50;99.90
22364;DHT22;11349;53.412;-1.328;2023-06-10T10:26:46;23.10;15.50
22364;DHT22;11349;53.412;-1.328;2023-06-10T10:29:31;22.60;1.00
22364;DHT22;11349;53.412;-1.328;2023-06-10T10:32:00;22.70;99.90
22364;DHT22;11349;53.412;-1.328;2023-06-10T10:34:52;22.60;99.90
22364;DHT22;11349;53.412;-1.328;2023-06-10T10:37:20;22.80;99.90
22364;DHT22;11349;53.412;-1.328;2023-06-10T10:39:45;22.90;99.90
22364;DHT22;11349;53.412;-1.328;2023-06-10T10:42:12;22.90;99.90
22364;DHT22;11349;53.412;-1.328;2023-06-10T10:44:39;22.60;99.90
22364;DHT22;11349;53.412;-1.328;2023-06-10T10:47:08;22.70;1.00
22364;DHT22;11349;53.412;-1.328;2023-06-10T10:49:35;22.80;99.90
22364;DHT22;11349;53.412;-1.328;2023-06-10T10:52:03;23.10;55.60
22364;DHT22;11349;53.412;-1.328;2023-06-10T10:54:35;22.30;99.90
22364;DHT22;11349;53.412;-1.328;2023-06-10T10:57:23;22.30;99.90
22364;DHT22;11349;53.412;-1.328;2023-06-10T11:05:05;22.80;99.90
22364;DHT22;11349;53.412;-1.328;2023-06-10T11:07:32;22.60;51.90
22364;DHT22;11349;53.412;-1.328;2023-06-10T11:10:09;22.70;99.90
22364;DHT22;11349;53.412;-1.328;2023-06-10T11:15:17;23.10;99.90
22364;DHT22;11349;53.412;-1.328;2023-06-10T11:20:43;23.10;99.90
22364;DHT22;11349;53.412;-1.328;2023-06-10T11:23:09;23.20;99.90
22364;DHT22;11349;53.412;-1.328;2023-06-10T11:25:39;23.10;99.90
22364;DHT22;11349;53.412;-1.328;2023-06-10T11:28:18;23.10;1.00
22364;DHT22;11349;53.412;-1.328;2023-06-10T11:30:45;23.10;1.00
22364;DHT22;11349;53.412;-1.328;2023-06-10T11:33:16;23.00;99.90
22364;DHT22;11349;53.412;-1.328;2023-06-10T11:35:42;23.20;45.30
22364;DHT22;11349;53.412;-1.328;2023-06-10T11:38:09;23.40;52.50
22364;DHT22;11349;53.412;-1.328;2023-06-10T11:40:34;23.30;99.90
22364;DHT22;11349;53.412;-1.328;2023-06-10T11:43:03;23.40;1.00
22364;DHT22;11349;53.412;-1.328;2023-06-10T11:45:29;23.50;99.90
22364;DHT22;11349;53.412;-1.328;2023-06-10T11:47:58;23.50;99.90
22364;DHT22;11349;53.412;-1.328;2023-06-10T11:50:29;23.40;99.90
22364;DHT22;11349;53.412;-1.328;2023-06-10T11:52:55;23.50;1.00
22364;DHT22;11349;53.412;-1.328;2023-06-10T11:55:21;23.70;1.00
22364;DHT22;11349;53.412;-1.328;2023-06-10T11:57:47;23.90;99.90
22364;DHT22;11349;53.412;-1.328;2023-06-10T12:00:14;23.90;99.90
22364;DHT22;11349;53.412;-1.328;2023-06-10T12:02:40;24.00;99.90
22364;DHT22;11349;53.412;-1.328;2023-06-10T12:05:15;24.00;99.90
22364;DHT22;11349;53.412;-1.328;2023-06-10T12:07:40;24.00;1.00
22364;DHT22;11349;53.412;-1.328;2023-06-10T12:10:06;24.20;99.90
22364;DHT22;11349;53.412;-1.328;2023-06-10T12:12:35;24.30;38.00
22364;DHT22;11349;53.412;-1.328;2023-06-10T12:15:02;24.20;1.00
22364;DHT22;11349;53.412;-1.328;2023-06-10T12:19:56;24.30;99.90
22364;DHT22;11349;53.412;-1.328;2023-06-10T12:22:23;24.30;99.90
22364;DHT22;11349;53.412;-1.328;2023-06-10T12:25:00;24.20;1.00
22364;DHT22;11349;53.412;-1.328;2023-06-10T12:27:27;24.40;99.90
22364;DHT22;11349;53.412;-1.328;2023-06-10T12:29:56;24.50;99.90
22364;DHT22;11349;53.412;-1.328;2023-06-10T12:32:43;24.50;99.90
22364;DHT22;11349;53.412;-1.328;2023-06-10T12:35:10;24.60;1.00
22364;DHT22;11349;53.412;-1.328;2023-06-10T12:37:37;24.70;99.90
22364;DHT22;11349;53.412;-1.328;2023-06-10T12:40:05;24.70;1.00
22364;DHT22;11349;53.412;-1.328;2023-06-10T12:42:37;24.70;99.90
22364;DHT22;11349;53.412;-1.328;2023-06-10T12:45:04;24.90;55.50
22364;DHT22;11349;53.412;-1.328;2023-06-10T12:47:33;24.90;99.90
22364;DHT22;11349;53.412;-1.328;2023-06-10T12:50:07;25.00;1.00
22364;DHT22;11349;53.412;-1.328;2023-06-10T12:52:33;25.20;1.00
22364;DHT22;11349;53.412;-1.328;2023-06-10T12:54:59;25.30;99.90
22364;DHT22;11349;53.412;-1.328;2023-06-10T12:57:25;25.40;25.20
22364;DHT22;11349;53.412;-1.328;2023-06-10T12:59:51;25.50;99.90
22364;DHT22;11349;53.412;-1.328;2023-06-10T13:02:22;25.60;99.90
22364;DHT22;11349;53.412;-1.328;2023-06-10T13:04:50;25.60;1.00
22364;DHT22;11349;53.412;-1.328;2023-06-10T13:07:16;25.70;1.00
22364;DHT22;11349;53.412;-1.328;2023-06-10T13:09:43;25.70;1.00
22364;DHT22;11349;53.412;-1.328;2023-06-10T13:12:09;25.80;1.00
22364;DHT22;11349;53.412;-1.328;2023-06-10T13:14:37;25.90;1.00
22364;DHT22;11349;53.412;-1.328;2023-06-10T13:17:06;26.00;1.00
22364;DHT22;11349;53.412;-1.328;2023-06-10T13:19:33;26.00;1.00
22364;DHT22;11349;53.412;-1.328;2023-06-10T13:21:58;26.00;1.00
22364;DHT22;11349;53.412;-1.328;2023-06-10T13:24:24;26.00;1.00
22364;DHT22;11349;53.412;-1.328;2023-06-10T13:26:50;26.20;1.00
22364;DHT22;11349;53.412;-1.328;2023-06-10T13:29:16;26.20;1.00
22364;DHT22;11349;53.412;-1.328;2023-06-10T13:31:41;26.20;1.00
22364;DHT22;11349;53.412;-1.328;2023-06-10T13:34:08;26.20;1.00
22364;DHT22;11349;53.412;-1.328;2023-06-10T13:36:33;26.30;1.00
22364;DHT22;11349;53.412;-1.328;2023-06-10T13:38:59;26.30;1.00
22364;DHT22;11349;53.412;-1.328;2023-06-10T13:41:25;26.50;1.00
22364;DHT22;11349;53.412;-1.328;2023-06-10T13:43:53;26.40;1.00
22364;DHT22;11349;53.412;-1.328;2023-06-10T13:46:21;26.50;1.00
22364;DHT22;11349;53.412;-1.328;2023-06-10T13:48:51;26.60;1.00
22364;DHT22;11349;53.412;-1.328;2023-06-10T13:51:17;26.70;1.00
22364;DHT22;11349;53.412;-1.328;2023-06-10T13:53:43;26.60;1.00
22364;DHT22;11349;53.412;-1.328;2023-06-10T13:56:09;26.70;1.00
22364;DHT22;11349;53.412;-1.328;2023-06-10T13:58:34;26.80;1.00
22364;DHT22;11349;53.412;-1.328;2023-06-10T14:01:04;26.90;1.00
22364;DHT22;11349;53.412;-1.328;2023-06-10T14:03:30;26.80;99.90
22364;DHT22;11349;53.412;-1.328;2023-06-10T14:05:56;26.70;99.90
22364;DHT22;11349;53.412;-1.328;2023-06-10T14:08:22;26.80;1.00
22364;DHT22;11349;53.412;-1.328;2023-06-10T14:10:47;26.90;99.90
22364;DHT22;11349;53.412;-1.328;2023-06-10T14:13:13;27.10;99.90
22364;DHT22;11349;53.412;-1.328;2023-06-10T14:15:39;27.30;99.90
22364;DHT22;11349;53.412;-1.328;2023-06-10T14:18:05;27.20;99.90
22364;DHT22;11349;53.412;-1.328;2023-06-10T14:20:30;27.10;99.90
22364;DHT22;11349;53.412;-1.328;2023-06-10T14:22:57;27.10;99.90
22364;DHT22;11349;53.412;-1.328;2023-06-10T14:25:23;27.20;99.90
22364;DHT22;11349;53.412;-1.328;2023-06-10T14:27:49;27.20;99.90
22364;DHT22;11349;53.412;-1.328;2023-06-10T14:30:15;27.20;99.90
22364;DHT22;11349;53.412;-1.328;2023-06-10T14:32:41;27.30;99.90
22364;DHT22;11349;53.412;-1.328;2023-06-10T14:35:07;27.40;99.90
22364;DHT22;11349;53.412;-1.328;2023-06-10T14:37:33;27.30;99.90
22364;DHT22;11349;53.412;-1.328;2023-06-10T14:39:58;27.20;99.90
22364;DHT22;11349;53.412;-1.328;2023-06-10T14:42:24;27.20;99.90
22364;DHT22;11349;53.412;-1.328;2023-06-10T14:44:50;27.30;99.90
22364;DHT22;11349;53.412;-1.328;2023-06-10T14:47:16;27.30;99.90
22364;DHT22;11349;53.412;-1.328;2023-06-10T14:49:42;27.40;99.90
22364;DHT22;11349;53.412;-1.328;2023-06-10T14:52:09;27.50;99.90
22364;DHT22;11349;53.412;-1.328;2023-06-10T14:54:35;27.30;99.90
22364;DHT22;11349;53.412;-1.328;2023-06-10T14:57:01;27.40;99.90
22364;DHT22;11349;53.412;-1.328;2023-06-10T14:59:27;27.30;99.90
22364;DHT22;11349;53.412;-1.328;2023-06-10T15:01:52;27.30;99.90
22364;DHT22;11349;53.412;-1.328;2023-06-10T15:04:18;27.30;99.90
22364;DHT22;11349;53.412;-1.328;2023-06-10T15:06:44;27.30;99.90
22364;DHT22;11349;53.412;-1.328;2023-06-10T15:09:10;27.30;99.90
22364;DHT22;11349;53.412;-1.328;2023-06-10T15:11:35;27.30;99.90
22364;DHT22;11349;53.412;-1.328;2023-06-10T15:14:03;27.20;99.90
22364;DHT22;11349;53.412;-1.328;2023-06-10T15:16:29;27.20;99.90
22364;DHT22;11349;53.412;-1.328;2023-06-10T15:18:55;27.30;99.90
22364;DHT22;11349;53.412;-1.328;2023-06-10T15:21:20;27.30;99.90
22364;DHT22;11349;53.412;-1.328;2023-06-10T15:23:46;27.30;99.90
22364;DHT22;11349;53.412;-1.328;2023-06-10T15:26:12;27.20;99.90
22364;DHT22;11349;53.412;-1.328;2023-06-10T15:28:38;27.10;99.90
22364;DHT22;11349;53.412;-1.328;2023-06-10T15:31:04;27.10;99.90
22364;DHT22;11349;53.412;-1.328;2023-06-10T15:33:30;27.20;99.90
22364;DHT22;11349;53.412;-1.328;2023-06-10T15:35:56;27.30;99.90